Time;durP1;ratioP1;P1;durP2;ratioP2;P2;SDS_P1;SDS_P2;PMS_P1;PMS_P2;Temp;Humidity;BMP_temperature;BMP_pressure;BME280_temperature;BME280_humidity;BME280_pressure;Samples;Min_cycle;Max_cycle;Signal;HPM_P1;HPM_P2
2022/11/23 00:00:25;;;;;;;23.57;13.70;;;10.10;99.90;;;10.17;66.86;93719.66;5029425;28;20518;-56
2022/11/23 00:02:53;;;;;;;26.67;14.63;;;10.10;99.90;;;10.16;67.26;93739.03;5028347;28;20518;-55
2022/11/23 00:05:21;;;;;;;25.83;13.90;;;10.10;99.90;;;10.16;67.31;93725.88;5027664;28;20480;-56
2022/11/23 00:07:48;;;;;;;22.13;12.97;;;10.10;99.90;;;10.15;67.42;93742.66;5029409;28;20467;-57
2022/11/23 00:10:16;;;;;;;22.60;12.10;;;10.10;99.90;;;10.12;67.00;93737.72;5028843;28;20503;-55
2022/11/23 00:12:43;;;;;;;18.70;12.87;;;10.10;99.90;;;10.09;67.40;93744.13;5029231;28;20456;-58
2022/11/23 00:15:12;;;;;;;22.23;11.03;;;10.00;99.90;;;10.07;67.26;93729.50;5028997;28;20477;-57
2022/11/23 00:17:40;;;;;;;16.73;10.73;;;10.00;99.90;;;10.05;67.58;93725.25;5029469;28;20463;-56
2022/11/23 00:20:09;;;;;;;18.13;11.70;;;10.00;99.90;;;10.03;67.84;93724.56;5024822;28;20479;-56
2022/11/23 00:22:36;;;;;;;17.77;11.90;;;10.00;99.90;;;10.02;68.20;93707.19;5026379;28;20452;-56
2022/11/23 00:25:04;;;;;;;16.20;10.70;;;10.00;99.90;;;10.01;68.31;93708.16;5028710;28;20828;-55
2022/11/23 00:27:31;;;;;;;16.80;10.93;;;10.00;99.90;;;10.01;68.79;93713.41;5029046;28;20961;-56
2022/11/23 00:29:58;;;;;;;14.30;10.07;;;10.00;99.90;;;10.02;68.72;93707.19;5029033;28;21036;-54
2022/11/23 00:32:26;;;;;;;15.73;10.43;;;10.00;99.90;;;10.03;68.54;93713.25;5028493;28;20449;-56
2022/11/23 00:34:55;;;;;;;12.63;9.60;;;10.00;99.90;;;10.02;69.31;93717.69;5028505;28;20473;-57
2022/11/23 00:37:22;;;;;;;18.53;10.40;;;10.00;99.90;;;10.00;69.25;93719.66;5028677;28;20453;-55
2022/11/23 00:39:49;;;;;;;18.73;9.97;;;10.00;99.90;;;10.00;69.43;93719.66;5028447;28;20475;-55
2022/11/23 00:42:16;;;;;;;12.70;9.73;;;10.00;99.90;;;10.00;69.22;93703.88;5029230;28;20937;-55
2022/11/23 00:44:43;;;;;;;16.20;9.63;;;10.00;99.90;;;9.99;69.45;93710.16;5028426;28;20484;-56
2022/11/23 00:47:11;;;;;;;11.53;9.07;;;9.90;99.90;;;9.99;69.63;93712.78;5028249;28;20456;-56
2022/11/23 00:49:38;;;;;;;12.70;8.80;;;9.90;99.90;;;9.97;69.04;93708.66;5027761;28;20500;-55
2022/11/23 00:52:07;;;;;;;23.80;10.20;;;9.90;99.90;;;9.94;69.07;93709.81;5028409;28;20462;-57
2022/11/23 00:54:34;;;;;;;13.30;9.57;;;9.90;99.90;;;9.92;69.24;93710.97;5028589;28;20992;-54
2022/11/23 00:57:01;;;;;;;12.57;9.13;;;9.90;99.90;;;9.88;69.72;93707.84;5026952;28;20449;-54
2022/11/23 00:59:29;;;;;;;17.20;8.53;;;9.80;99.90;;;9.86;70.27;93712.44;5028213;28;20487;-56
2022/11/23 01:01:56;;;;;;;9.83;8.20;;;9.80;99.90;;;9.86;70.48;93725.56;5028274;28;20453;-55
2022/11/23 01:04:23;;;;;;;10.57;7.83;;;9.80;99.90;;;9.85;70.33;93726.53;5025618;28;21013;-57
2022/11/23 01:06:50;;;;;;;11.00;8.30;;;9.80;99.90;;;9.82;70.31;93716.38;5027803;28;20506;-55
2022/11/23 01:09:23;;;;;;;18.40;8.93;;;9.80;99.90;;;9.81;70.76;93717.38;5026223;28;20464;-55
2022/11/23 01:11:51;;;;;;;12.67;8.63;;;9.80;99.90;;;9.80;70.80;93697.34;5025145;28;20476;-55
2022/11/23 01:14:18;;;;;;;11.03;9.07;;;9.80;99.90;;;9.80;71.12;93713.09;5027582;28;20477;-56
2022/11/23 01:16:46;;;;;;;10.17;8.03;;;9.80;99.90;;;9.78;71.09;93730.81;5028073;28;20449;-58
2022/11/23 01:19:14;;;;;;;16.13;9.70;;;9.70;99.90;;;9.75;71.55;93726.72;5027924;28;20554;-57
2022/11/23 01:21:42;;;;;;;10.97;8.27;;;9.70;99.90;;;9.76;71.54;93725.75;5027752;28;20522;-57
2022/11/23 01:24:11;;;;;;;12.20;8.00;;;9.70;99.90;;;9.76;71.79;93711.78;5027807;28;20465;-55
2022/11/23 01:26:40;;;;;;;8.27;6.40;;;9.70;99.90;;;9.75;71.70;93699.66;5027849;28;20559;-55
2022/11/23 01:29:07;;;;;;;9.33;7.30;;;9.70;99.90;;;9.75;71.64;93710.16;5028087;28;20554;-56
2022/11/23 01:31:34;;;;;;;10.77;7.80;;;9.70;99.90;;;9.75;71.87;93718.03;5028236;28;20506;-55
2022/11/23 01:34:02;;;;;;;11.77;7.87;;;9.70;99.90;;;9.74;72.43;93709.31;5028400;28;20527;-55
2022/11/23 01:36:31;;;;;;;11.10;7.70;;;9.70;99.90;;;9.75;71.85;93691.75;5027753;28;20456;-57
2022/11/23 01:38:58;;;;;;;8.83;6.90;;;9.70;99.90;;;9.75;71.59;93697.03;5028115;28;20507;-54
2022/11/23 01:41:28;;;;;;;7.90;7.10;;;9.70;99.90;;;9.70;72.00;93702.75;5027444;28;20452;-56
2022/11/23 01:43:56;;;;;;;11.90;8.47;;;9.70;99.90;;;9.69;72.03;93696.66;5026797;28;20849;-55
2022/11/23 01:46:24;;;;;;;10.90;7.13;;;9.70;99.90;;;9.69;72.14;93719.47;5027608;28;20881;-55
2022/11/23 01:48:54;;;;;;;8.73;7.60;;;9.70;99.90;;;9.69;72.28;93717.66;5026895;28;20992;-57
2022/11/23 01:51:23;;;;;;;10.10;7.33;;;9.70;99.90;;;9.70;72.58;93702.75;5027344;28;20496;-55
2022/11/23 01:53:52;;;;;;;9.00;6.80;;;9.70;99.90;;;9.71;72.36;93698.31;5027681;28;20855;-54
2022/11/23 01:56:21;;;;;;;8.60;6.97;;;9.60;99.90;;;9.68;71.99;93705.53;5026945;28;20449;-55
2022/11/23 01:58:50;;;;;;;9.97;7.40;;;9.60;99.90;;;9.64;72.34;93703.41;5027141;28;20480;-56
2022/11/23 02:01:19;;;;;;;11.67;7.33;;;9.60;99.90;;;9.61;72.03;93699.28;5027124;28;20460;-57
2022/11/23 02:03:47;;;;;;;13.10;8.20;;;9.60;99.90;;;9.59;72.34;93684.69;5025317;28;20472;-56
2022/11/23 02:06:16;;;;;;;12.50;8.30;;;9.60;99.90;;;9.57;72.70;93668.28;5026801;28;20948;-55
2022/11/23 02:08:43;;;;;;;12.40;7.40;;;9.60;99.90;;;9.55;73.09;93671.06;5023474;28;20473;-58
2022/11/23 02:11:11;;;;;;;11.87;7.53;;;9.50;99.90;;;9.54;72.37;93682.53;5027260;28;20488;-57
2022/11/23 02:13:38;;;;;;;10.40;7.57;;;9.50;99.90;;;9.52;72.76;93680.09;5026869;28;21013;-56
2022/11/23 02:16:06;;;;;;;12.37;7.27;;;9.50;99.90;;;9.50;73.21;93681.25;5026767;28;20470;-56
2022/11/23 02:18:35;;;;;;;10.70;7.00;;;9.50;99.90;;;9.49;72.83;93684.84;5026225;28;20448;-55
2022/11/23 02:21:03;;;;;;;7.47;6.77;;;9.50;99.90;;;9.46;73.02;93679.91;5026378;28;21017;-58
2022/11/23 02:23:37;;;;;;;8.70;7.53;;;9.40;99.90;;;9.46;73.30;93669.44;5027045;28;20456;-56
2022/11/23 02:26:08;;;;;;;7.93;6.93;;;9.40;99.90;;;9.45;73.13;93688.78;5026534;28;20552;-56
2022/11/23 02:28:38;;;;;;;9.20;7.20;;;9.40;99.90;;;9.45;73.76;93679.13;5026487;28;20452;-57
2022/11/23 02:31:06;;;;;;;10.97;7.47;;;9.40;99.90;;;9.45;73.30;93680.91;5026561;28;20571;-59
2022/11/23 02:33:33;;;;;;;10.20;6.23;;;9.40;99.90;;;9.46;73.09;93682.53;5022949;28;20453;-57
2022/11/23 02:36:01;;;;;;;7.87;6.40;;;9.40;99.90;;;9.44;73.04;93679.28;5023006;28;20453;-57
2022/11/23 02:38:31;;;;;;;8.47;7.03;;;9.40;99.90;;;9.45;73.51;93673.88;5026134;28;20457;-58
2022/11/23 02:40:58;;;;;;;10.47;7.73;;;9.40;99.90;;;9.45;72.97;93659.91;5026619;28;20962;-58
2022/11/23 02:43:27;;;;;;;9.57;7.80;;;9.40;99.90;;;9.46;72.90;93645.81;5026558;28;20452;-57
2022/11/23 02:45:55;;;;;;;8.63;7.80;;;9.40;99.90;;;9.42;72.96;93647.09;5026286;28;20453;-55
2022/11/23 02:48:23;;;;;;;11.23;8.07;;;9.40;99.90;;;9.42;73.37;93657.59;5025892;28;20491;-57
2022/11/23 02:50:50;;;;;;;10.10;7.43;;;9.40;99.90;;;9.43;74.06;93639.06;5026510;28;20496;-53
2022/11/23 02:53:17;;;;;;;8.33;7.43;;;9.40;99.90;;;9.42;74.17;93615.63;5025714;28;20530;-56
2022/11/23 02:55:44;;;;;;;8.40;7.30;;;9.40;99.90;;;9.42;73.40;93626.94;5025978;28;20456;-56
2022/11/23 02:58:12;;;;;;;7.57;6.20;;;9.40;99.90;;;9.40;73.36;93623.66;5026269;28;20464;-56
2022/11/23 03:00:40;;;;;;;8.10;6.93;;;9.40;99.90;;;9.40;73.41;93614.97;5027088;28;20481;-54
2022/11/23 03:03:07;;;;;;;9.43;7.10;;;9.30;99.90;;;9.40;73.30;93622.84;5025784;28;20456;-54
2022/11/23 03:05:35;;;;;;;9.73;6.80;;;9.40;99.90;;;9.38;72.81;93609.06;5025910;28;20595;-56
2022/11/23 03:08:02;;;;;;;11.90;8.07;;;9.30;99.90;;;9.33;72.68;93626.13;5025535;28;20969;-55
2022/11/23 03:10:31;;;;;;;9.27;7.93;;;9.40;99.90;;;9.29;72.96;93595.13;5026052;28;20493;-57
2022/11/23 03:12:58;;;;;;;12.37;8.50;;;9.30;99.90;;;9.23;72.96;93609.69;5026043;28;20522;-57
2022/11/23 03:15:25;;;;;;;10.47;8.87;;;9.20;99.90;;;9.16;73.34;93621.84;5022263;28;20476;-57
2022/11/23 03:17:54;;;;;;;10.70;7.73;;;9.20;99.90;;;9.05;73.72;93588.06;5023439;28;20457;-56
2022/11/23 03:20:21;;;;;;;9.53;8.50;;;9.10;99.90;;;9.00;73.49;93604.28;5026128;28;20469;-55
2022/11/23 03:22:48;;;;;;;11.30;8.07;;;9.00;99.90;;;8.95;73.96;93609.19;5025621;28;20526;-55
2022/11/23 03:25:16;;;;;;;11.43;9.43;;;9.00;99.90;;;8.90;73.73;93586.06;5025691;28;20465;-54
2022/11/23 03:27:43;;;;;;;13.67;8.60;;;8.90;99.90;;;8.88;74.22;93606.38;5022169;28;20816;-55
2022/11/23 03:30:11;;;;;;;12.20;8.87;;;8.90;99.90;;;8.87;73.91;93609.16;5021586;28;20539;-56
2022/11/23 03:32:38;;;;;;;14.80;9.43;;;8.90;99.90;;;8.83;74.24;93606.06;5023467;28;20467;-53
2022/11/23 03:35:09;;;;;;;11.47;8.53;;;8.80;99.90;;;8.82;74.36;93612.28;5021823;28;20472;-55
2022/11/23 03:37:38;;;;;;;18.57;8.90;;;8.80;99.90;;;8.76;74.88;93571.78;5023249;28;20455;-52
2022/11/23 03:40:06;;;;;;;10.20;8.60;;;8.80;99.90;;;8.75;74.38;93587.66;5020677;28;20811;-62
2022/11/23 03:42:33;;;;;;;8.80;7.90;;;8.70;99.90;;;8.74;74.95;93570.31;5025189;28;20482;-61
2022/11/23 03:45:01;;;;;;;9.80;7.70;;;8.70;99.90;;;8.74;75.16;93583.44;5023214;28;20469;-57
2022/11/23 03:47:28;;;;;;;11.67;8.13;;;8.70;99.90;;;8.77;74.99;93575.25;5024070;28;20777;-57
2022/11/23 03:49:55;;;;;;;9.50;8.10;;;8.70;99.90;;;8.80;74.92;93564.44;5019592;28;20530;-56
2022/11/23 03:52:24;;;;;;;14.10;8.77;;;8.80;99.90;;;8.81;74.54;93602.75;5024290;28;20460;-54
2022/11/23 03:54:51;;;;;;;8.60;7.10;;;8.80;99.90;;;8.78;75.44;93566.38;5018719;28;20530;-56
2022/11/23 03:57:18;;;;;;;9.27;6.87;;;8.80;99.90;;;8.78;74.91;93561.13;5020601;28;20460;-53
2022/11/23 03:59:45;;;;;;;7.47;5.73;;;8.80;99.90;;;8.79;74.90;93591.63;5018992;28;20489;-56
2022/11/23 04:02:13;;;;;;;7.87;6.60;;;8.80;99.90;;;8.79;75.08;93570.66;5024251;28;20445;-54
2022/11/23 04:04:40;;;;;;;8.03;6.60;;;8.80;99.90;;;8.80;74.60;93580.16;5022724;28;21080;-59
2022/11/23 04:07:07;;;;;;;11.03;6.87;;;8.80;99.90;;;8.81;75.18;93602.75;5024449;28;20456;-54
2022/11/23 04:09:36;;;;;;;6.70;6.10;;;8.80;99.90;;;8.83;75.11;93598.19;5019426;28;20484;-55
2022/11/23 04:12:04;;;;;;;7.07;6.37;;;8.80;99.90;;;8.89;75.58;93612.44;5024907;28;20493;-55
2022/11/23 04:14:31;;;;;;;8.30;6.80;;;8.80;99.90;;;8.91;75.46;93598.19;5022484;28;20477;-55
2022/11/23 04:16:58;;;;;;;10.10;7.17;;;8.90;99.90;;;8.95;75.54;93611.78;5023506;28;20904;-56
2022/11/23 04:19:25;;;;;;;8.73;7.90;;;8.90;99.90;;;8.99;75.57;93609.69;5022228;28;20473;-57
2022/11/23 04:21:52;;;;;;;12.90;8.50;;;8.90;99.90;;;9.02;75.18;93606.75;5024978;28;20510;-56
2022/11/23 04:24:20;;;;;;;11.57;7.30;;;9.00;99.90;;;9.06;75.29;93605.41;5024770;28;20465;-54
2022/11/23 04:26:48;;;;;;;14.77;8.83;;;9.00;99.90;;;9.08;75.17;93613.97;5025623;28;20460;-57
2022/11/23 04:29:16;;;;;;;15.63;9.43;;;9.00;99.90;;;9.07;75.26;93613.13;5024662;28;20469;-56
2022/11/23 04:31:43;;;;;;;11.57;8.80;;;9.00;99.90;;;9.06;75.32;93618.53;5025225;28;21078;-54
2022/11/23 04:34:10;;;;;;;11.37;9.30;;;9.10;99.90;;;9.07;74.96;93612.31;5025289;28;20472;-62
2022/11/23 04:36:37;;;;;;;12.77;9.70;;;9.10;99.90;;;9.07;75.00;93618.38;5025148;28;20456;-54
2022/11/23 04:39:06;;;;;;;13.87;9.30;;;9.10;99.90;;;9.08;74.88;93617.41;5024575;28;20484;-56
2022/11/23 04:41:33;;;;;;;9.90;8.93;;;9.00;99.90;;;9.09;74.87;93628.72;5025274;28;20453;-55
2022/11/23 04:44:01;;;;;;;12.73;9.17;;;9.10;99.90;;;9.11;75.10;93618.91;5026483;28;20473;-58
2022/11/23 04:46:29;;;;;;;11.90;9.37;;;9.10;99.90;;;9.12;75.00;93620.50;5024502;28;20514;-55
2022/11/23 04:48:56;;;;;;;13.63;10.00;;;9.10;99.90;;;9.11;74.92;93619.69;5024578;28;20469;-56
2022/11/23 04:51:23;;;;;;;13.03;10.20;;;9.10;99.90;;;9.13;75.07;93619.53;5028644;28;20862;-55
2022/11/23 04:53:51;;;;;;;16.90;8.80;;;9.10;99.90;;;9.13;74.90;93643.97;5028485;28;20563;-56
2022/11/23 04:56:18;;;;;;;12.67;9.10;;;9.10;99.90;;;9.14;75.33;93634.31;5028190;28;20536;-55
2022/11/23 04:58:45;;;;;;;17.00;9.43;;;9.10;99.90;;;9.15;75.32;93643.81;5028225;28;20904;-56
2022/11/23 05:01:14;;;;;;;11.00;8.73;;;9.10;99.90;;;9.13;75.13;93633.47;5025698;28;20468;-56
2022/11/23 05:03:41;;;;;;;11.03;8.80;;;9.10;99.90;;;9.17;74.49;93644.47;5023784;28;20464;-58
2022/11/23 05:06:10;;;;;;;15.33;10.03;;;9.10;99.90;;;9.15;74.54;93641.19;5025634;28;20464;-55
2022/11/23 05:08:37;;;;;;;13.17;9.70;;;9.10;99.90;;;9.14;74.69;93634.31;5023137;28;20481;-56
2022/11/23 05:11:05;;;;;;;12.00;9.33;;;9.10;99.90;;;9.12;74.50;93646.75;5026809;28;20579;-56
2022/11/23 05:13:32;;;;;;;15.77;10.80;;;9.10;99.90;;;9.13;74.62;93637.91;5024405;28;20511;-55
2022/11/23 05:15:59;;;;;;;16.67;9.97;;;9.10;99.90;;;9.14;74.94;93640.38;5025693;28;20456;-56
2022/11/23 05:18:28;;;;;;;11.00;9.10;;;9.10;99.90;;;9.17;75.03;93627.91;5024301;28;20456;-56
2022/11/23 05:20:55;;;;;;;13.83;9.53;;;9.10;99.90;;;9.18;74.99;93632.97;5026818;28;20560;-55
2022/11/23 05:23:23;;;;;;;14.50;10.60;;;9.10;99.90;;;9.19;74.59;93629.38;5024089;28;20457;-56
2022/11/23 05:25:50;;;;;;;15.10;10.40;;;9.20;99.90;;;9.16;74.37;93632.34;5026895;28;20885;-56
2022/11/23 05:28:19;;;;;;;15.43;9.27;;;9.10;99.90;;;9.14;74.92;93618.56;5023286;28;20449;-54
2022/11/23 05:30:46;;;;;;;11.70;8.30;;;9.10;99.90;;;9.12;74.46;93620.50;5019018;28;20488;-55
2022/11/23 05:33:13;;;;;;;15.17;8.30;;;9.10;99.90;;;9.10;74.66;93617.25;5017932;28;20954;-56
2022/11/23 05:35:42;;;;;;;13.53;8.50;;;9.10;99.90;;;9.07;74.43;93620.19;5027028;28;20484;-56
2022/11/23 05:38:09;;;;;;;13.20;8.77;;;9.10;99.90;;;9.05;74.88;93615.09;5022747;28;20464;-55
2022/11/23 05:40:37;;;;;;;13.53;9.30;;;9.00;99.90;;;9.05;74.56;93606.44;5026891;28;20887;-56
2022/11/23 05:43:04;;;;;;;11.57;9.37;;;9.00;99.90;;;9.05;74.67;93609.06;5023166;28;20552;-56
2022/11/23 05:45:32;;;;;;;17.33;10.57;;;9.10;99.90;;;9.04;74.51;93631.00;5026509;28;20488;-56
2022/11/23 05:47:59;;;;;;;12.20;8.50;;;9.00;99.90;;;9.01;74.77;93619.03;5022692;28;20543;-56
2022/11/23 05:50:27;;;;;;;8.87;7.37;;;9.00;99.90;;;9.00;74.62;93603.44;5026708;28;20590;-55
2022/11/23 05:52:57;;;;;;;16.90;7.40;;;9.00;99.90;;;9.00;74.92;93599.03;5022686;28;20508;-55
2022/11/23 05:55:25;;;;;;;10.20;7.70;;;9.00;99.90;;;9.02;75.44;93604.13;5025008;28;20494;-55
2022/11/23 05:57:52;;;;;;;11.63;8.20;;;9.00;99.90;;;9.05;75.20;93611.66;5021146;28;20529;-55
2022/11/23 06:00:20;;;;;;;9.37;7.07;;;9.00;99.90;;;9.07;75.14;93620.19;5025134;28;20974;-56
2022/11/23 06:02:47;;;;;;;10.10;6.63;;;9.00;99.90;;;9.07;74.82;93612.31;5022187;28;20445;-57
2022/11/23 06:05:14;;;;;;;9.17;7.80;;;9.10;99.90;;;9.10;75.12;93619.88;5025912;28;20516;-62
2022/11/23 06:07:42;;;;;;;11.93;7.43;;;9.00;99.90;;;9.12;75.21;93625.75;5021506;28;20464;-55
2022/11/23 06:10:11;;;;;;;13.43;9.13;;;9.10;99.90;;;9.17;75.44;93615.63;5025319;28;20910;-57
2022/11/23 06:12:38;;;;;;;12.40;8.67;;;9.10;99.90;;;9.23;76.73;93622.81;5020874;28;20488;-56
2022/11/23 06:15:07;;;;;;;16.07;8.57;;;9.20;99.90;;;9.31;76.80;93622.84;5024346;28;20526;-56
2022/11/23 06:17:36;;;;;;;17.90;8.40;;;9.30;99.90;;;9.41;77.60;93632.38;5020931;28;20620;-57
2022/11/23 06:20:04;;;;;;;13.30;9.00;;;9.40;99.90;;;9.49;77.11;93637.59;5024134;28;20984;-57
2022/11/23 06:22:32;;;;;;;12.00;8.77;;;9.40;99.90;;;9.56;76.64;93646.47;5023985;28;20453;-57
2022/11/23 06:24:59;;;;;;;12.03;8.83;;;9.50;99.90;;;9.58;75.99;93649.75;5025737;28;20534;-55
2022/11/23 06:27:28;;;;;;;12.63;9.43;;;9.60;99.90;;;9.56;75.14;93650.88;5019730;28;20899;-58
2022/11/23 06:29:55;;;;;;;16.87;10.20;;;9.50;99.90;;;9.49;75.38;93655.97;5024623;28;20472;-58
2022/11/23 06:32:22;;;;;;;14.90;10.27;;;9.50;99.90;;;9.42;74.92;93660.22;5022937;28;20519;-58
2022/11/23 06:34:49;;;;;;;11.30;9.00;;;9.40;99.90;;;9.35;75.25;93662.69;5024921;28;20848;-58
2022/11/23 06:37:17;;;;;;;12.10;9.20;;;9.40;99.90;;;9.40;75.57;93664.81;5019600;28;20563;-57
2022/11/23 06:39:44;;;;;;;18.27;11.00;;;9.40;99.90;;;9.52;75.20;93650.41;5024730;28;20484;-56
2022/11/23 06:42:12;;;;;;;13.03;8.90;;;9.50;99.90;;;9.64;74.62;93661.41;5019234;28;20450;-57
2022/11/23 06:44:40;;;;;;;15.17;10.10;;;9.60;99.90;;;9.65;74.39;93653.38;5023838;28;20932;-57
2022/11/23 06:47:08;;;;;;;15.33;10.17;;;9.60;99.90;;;9.71;74.07;93638.75;5023281;28;20472;-58
2022/11/23 06:49:35;;;;;;;18.30;9.70;;;9.70;99.90;;;9.79;74.37;93637.91;5024766;28;20483;-56
2022/11/23 06:52:02;;;;;;;12.60;9.60;;;9.70;99.90;;;9.91;74.32;93635.78;5023006;28;20492;-57
2022/11/23 06:54:30;;;;;;;14.10;9.70;;;9.80;99.90;;;10.05;74.09;93628.06;5024535;28;20483;-55
2022/11/23 06:56:57;;;;;;;12.60;8.90;;;10.00;99.90;;;10.25;73.77;93638.16;5021453;28;20848;-54
2022/11/23 06:59:24;;;;;;;14.43;9.23;;;10.20;99.90;;;10.53;73.38;93654.41;5021003;28;20489;-56
2022/11/23 07:01:53;;;;;;;12.80;9.33;;;10.40;99.90;;;10.74;73.10;93658.25;5025701;28;20906;-56
2022/11/23 07:04:20;;;;;;;11.73;8.23;;;10.60;99.90;;;10.88;72.64;93654.09;5025910;28;20483;-56
2022/11/23 07:06:48;;;;;;;10.80;8.40;;;10.80;99.90;;;11.13;72.62;93642.44;5026149;28;20544;-57
2022/11/23 07:09:15;;;;;;;11.63;8.37;;;11.10;99.90;;;11.73;72.21;93637.41;5025755;28;20546;-55
2022/11/23 07:11:42;;;;;;;9.50;7.90;;;11.60;99.90;;;12.45;70.65;93637.91;5025797;28;20496;-57
2022/11/23 07:14:10;;;;;;;10.03;7.23;;;12.30;99.90;;;13.16;69.30;93642.66;5024971;28;21048;-58
2022/11/23 07:16:37;;;;;;;15.60;6.97;;;12.90;99.90;;;13.69;67.79;93655.63;5025694;28;20456;-57
2022/11/23 07:19:06;;;;;;;12.13;7.50;;;13.50;99.90;;;14.26;66.52;93657.31;5025750;28;20492;-56
2022/11/23 07:21:33;;;;;;;6.57;5.10;;;14.10;99.90;;;14.99;65.12;93649.03;5025881;28;20456;-58
2022/11/23 07:24:00;;;;;;;7.83;6.47;;;14.70;99.90;;;15.65;63.64;93641.50;5025819;28;20476;-56
2022/11/23 07:26:27;;;;;;;8.90;6.60;;;15.30;99.90;;;16.15;62.07;93651.78;5025435;28;20528;-53
2022/11/23 07:28:55;;;;;;;7.97;7.17;;;15.80;99.90;;;16.54;61.57;93645.59;5025702;28;20473;-54
2022/11/23 07:31:22;;;;;;;11.03;8.93;;;16.20;99.90;;;16.78;60.33;93652.09;5025287;28;20572;-54
2022/11/23 07:33:49;;;;;;;10.43;7.30;;;16.50;99.10;;;16.79;59.75;93642.28;5024223;28;20504;-57
2022/11/23 07:36:18;;;;;;;13.70;7.07;;;16.60;98.40;;;16.62;58.87;93661.34;5025468;28;20456;-58
2022/11/23 07:38:45;;;;;;;8.43;7.63;;;16.50;97.00;;;16.40;59.42;93654.59;5025635;28;20473;-61
2022/11/23 07:41:13;;;;;;;9.93;7.07;;;16.40;97.60;;;16.31;59.56;93649.53;5025201;28;20965;-57
2022/11/23 07:43:40;;;;;;;7.70;6.50;;;16.30;97.50;;;16.27;58.39;93639.53;5025092;28;20477;-58
2022/11/23 07:46:07;;;;;;;10.50;8.40;;;16.20;96.40;;;16.24;59.48;93635.44;5025579;28;20456;-57
2022/11/23 07:48:35;;;;;;;12.20;8.07;;;16.20;97.20;;;16.53;59.58;93621.91;5022550;28;20464;-56
2022/11/23 07:51:02;;;;;;;9.27;7.27;;;16.40;97.60;;;17.22;58.33;93646.28;5025584;28;20445;-57
2022/11/23 07:53:30;;;;;;;8.93;6.70;;;16.90;97.50;;;18.00;56.82;93642.56;5025494;28;20463;-57
2022/11/23 07:55:58;;;;;;;8.90;7.50;;;17.50;96.70;;;18.82;56.07;93645.13;5025155;28;20798;-53
2022/11/23 07:58:25;;;;;;;14.40;6.97;;;18.20;96.10;;;19.62;54.81;93644.22;5025633;28;20452;-53
2022/11/23 08:00:52;;;;;;;9.20;7.47;;;19.00;95.20;;;20.44;52.99;93644.69;5025491;28;20452;-54
2022/11/23 08:03:21;;;;;;;9.70;7.47;;;19.80;93.80;;;21.14;51.89;93643.84;5025527;28;20507;-55
2022/11/23 08:05:48;;;;;;;8.03;7.20;;;20.50;92.70;;;21.83;50.36;93645.78;5025705;28;20464;-56
2022/11/23 08:08:16;;;;;;;8.17;7.33;;;21.20;91.40;;;22.45;48.60;93636.94;5025325;28;20906;-57
2022/11/23 08:10:44;;;;;;;13.13;7.40;;;21.80;89.90;;;23.05;48.18;93639.94;5025439;28;20453;-57
2022/11/23 08:13:12;;;;;;;11.43;8.40;;;22.40;86.70;;;23.59;47.15;93632.09;5024962;28;20518;-56
2022/11/23 08:15:39;;;;;;;9.80;8.17;;;22.90;82.90;;;24.05;45.76;93620.22;5024997;28;20469;-57
2022/11/23 08:18:06;;;;;;;11.67;9.17;;;23.40;79.70;;;24.46;44.95;93621.38;5025793;28;20448;-57
2022/11/23 08:20:34;;;;;;;13.07;8.37;;;23.90;77.00;;;24.85;43.94;93623.03;5028977;28;20865;-56
2022/11/23 08:23:01;;;;;;;11.37;7.80;;;24.20;74.70;;;25.26;43.02;93628.63;5029061;28;20903;-58
2022/11/23 08:25:29;;;;;;;9.33;7.97;;;24.60;72.40;;;25.68;42.09;93630.44;5029185;28;20491;-58
2022/11/23 08:27:58;;;;;;;16.80;8.67;;;25.00;70.70;;;26.04;41.19;93611.72;5028990;28;20464;-57
2022/11/23 08:30:26;;;;;;;9.27;8.10;;;25.40;67.50;;;26.36;40.87;93617.94;5029231;28;20480;-57
2022/11/23 08:32:53;;;;;;;11.63;10.40;;;25.70;66.30;;;26.53;40.12;93612.28;5028626;28;20503;-54
2022/11/23 08:35:20;;;;;;;13.87;10.30;;;25.90;64.00;;;26.57;39.84;93611.47;5028712;28;20836;-57
2022/11/23 08:37:48;;;;;;;11.60;10.20;;;26.10;63.20;;;26.75;39.50;93612.81;5028299;28;20447;-55
2022/11/23 08:40:15;;;;;;;11.47;10.07;;;26.20;61.60;;;26.98;39.41;93624.91;5028588;28;20588;-58
2022/11/23 08:42:42;;;;;;;14.80;11.77;;;26.40;60.80;;;27.18;37.57;93617.84;5028106;28;20460;-55
2022/11/23 08:45:12;;;;;;;16.07;14.27;;;26.60;58.20;;;27.24;38.31;93614.06;5028379;28;20945;-54
2022/11/23 08:47:39;;;;;;;18.60;16.60;;;26.70;57.90;;;27.31;37.99;93624.56;5028649;28;20449;-57
2022/11/23 08:50:07;;;;;;;16.13;13.43;;;26.80;58.40;;;27.42;38.29;93615.38;5029049;28;20479;-56
2022/11/23 08:52:35;;;;;;;14.70;12.93;;;26.90;57.70;;;27.53;37.89;93613.47;5027940;28;20499;-54
2022/11/23 08:55:02;;;;;;;15.43;12.70;;;27.00;57.40;;;27.60;37.97;93618.56;5028409;28;20475;-58
2022/11/23 08:57:29;;;;;;;14.87;12.40;;;27.00;57.00;;;27.64;37.95;93615.03;5028284;28;20456;-59
2022/11/23 08:59:56;;;;;;;18.93;14.20;;;27.10;56.50;;;27.69;37.28;93631.19;5028574;28;20468;-57
2022/11/23 09:02:25;;;;;;;19.90;14.80;;;27.20;56.00;;;27.70;36.30;93622.00;5028527;28;20468;-54
2022/11/23 09:04:53;;;;;;;23.27;15.70;;;27.20;54.30;;;27.49;36.86;93618.59;5027730;28;20844;-55
2022/11/23 09:07:20;;;;;;;20.90;15.60;;;27.10;54.00;;;27.34;36.78;93608.66;5027863;28;20459;-55
2022/11/23 09:09:47;;;;;;;19.37;14.80;;;27.00;54.50;;;27.40;37.11;93604.03;5028011;28;20468;-56
2022/11/23 09:12:14;;;;;;;20.30;17.40;;;26.90;54.90;;;27.42;34.65;93595.66;5027416;28;20492;-56
2022/11/23 09:14:42;;;;;;;19.03;14.90;;;26.90;52.70;;;27.32;36.74;93596.50;5028234;28;20583;-56
2022/11/23 09:17:09;;;;;;;21.47;16.93;;;26.90;53.40;;;27.27;36.40;93599.22;5028323;28;21024;-55
2022/11/23 09:19:38;;;;;;;21.77;16.60;;;26.80;53.70;;;27.15;36.42;93589.50;5028184;28;20483;-56
2022/11/23 09:22:05;;;;;;;18.23;15.17;;;26.70;53.60;;;27.18;36.62;93599.75;5024730;28;20460;-54
2022/11/23 09:24:32;;;;;;;20.43;15.43;;;26.70;53.70;;;27.29;37.05;93592.44;5024149;28;20472;-57
2022/11/23 09:27:00;;;;;;;19.40;15.13;;;26.80;54.40;;;27.48;36.21;93606.19;5028109;28;20452;-59
2022/11/23 09:29:27;;;;;;;12.83;11.03;;;26.90;54.30;;;27.57;35.79;93601.00;5027207;28;20893;-57
2022/11/23 09:31:54;;;;;;;15.27;9.70;;;27.00;52.70;;;27.64;36.30;93603.41;5027298;28;20506;-58
2022/11/23 09:34:22;;;;;;;13.73;10.07;;;27.10;54.10;;;27.82;36.40;93583.03;5028209;28;20602;-54
2022/11/23 09:36:51;;;;;;;12.60;10.40;;;27.20;53.50;;;28.00;35.95;93584.31;5027566;28;20514;-57
2022/11/23 09:39:18;;;;;;;11.30;8.73;;;27.40;52.70;;;28.17;35.99;93589.34;5027447;28;21061;-54
2022/11/23 09:42:00;;;;;;;12.13;8.83;;;27.60;52.80;;;28.36;35.02;93576.75;5027138;28;20459;-55
2022/11/23 09:44:35;;;;;;;10.33;9.03;;;27.80;51.90;;;28.62;34.12;93579.25;5024171;28;20472;-53
2022/11/23 09:47:13;;;;;;;12.57;8.70;;;28.00;51.60;;;28.84;34.74;93576.06;5027350;28;20451;-53
2022/11/23 09:49:45;;;;;;;12.73;9.60;;;28.20;51.20;;;28.98;32.06;93585.13;5027303;28;21000;-53
2022/11/23 09:52:17;;;;;;;16.03;9.30;;;28.40;48.30;;;28.94;33.64;93588.72;5027357;28;20503;-55
2022/11/23 09:54:44;;;;;;;11.30;8.50;;;28.40;49.80;;;28.84;33.73;93586.91;5023555;28;20472;-53
2022/11/23 09:57:12;;;;;;;10.23;7.90;;;28.30;49.10;;;28.66;33.70;93580.31;5027083;28;20452;-56
2022/11/23 09:59:41;;;;;;;7.03;6.43;;;28.20;49.70;;;28.69;32.74;93585.16;5027601;28;20860;-53
2022/11/23 10:02:18;;;;;;;11.00;8.23;;;28.10;47.70;;;28.73;32.48;93586.19;5027081;28;20494;-54
2022/11/23 10:04:45;;;;;;;8.80;7.90;;;28.20;48.30;;;28.78;33.79;93585.34;5026632;28;20480;-56
2022/11/23 10:07:22;;;;;;;13.80;7.40;;;28.10;49.10;;;28.81;33.55;93584.75;5026916;28;20456;-56
2022/11/23 10:09:55;;;;;;;11.90;7.60;;;28.20;48.90;;;28.86;32.77;93581.19;5025002;28;20835;-57
2022/11/23 10:12:35;;;;;;;11.03;7.20;;;28.20;48.20;;;28.63;32.92;93577.34;5027094;28;20483;-56
2022/11/23 10:15:12;;;;;;;8.17;6.83;;;28.10;48.10;;;28.22;32.61;93573.06;5026487;28;20591;-54
2022/11/23 10:18:21;;;;;;;8.87;7.67;;;27.90;47.20;;;27.75;33.12;93561.75;5024352;28;20454;-57
2022/11/23 10:20:56;;;;;;;6.80;6.07;;;27.60;48.10;;;26.97;33.85;93571.22;5011752;28;20544;-58
2022/11/23 10:23:41;;;;;;;6.60;5.73;;;26.80;48.80;;;26.17;35.27;93567.25;5026431;28;20459;-56